sensor_id;sensor_type;location;lat;lon;timestamp;P1;P2;P0
77365;PMS5003;66430;50.182;11.704;2023-02-28T00:00:07;15;14;
77365;PMS5003;66430;50.182;11.704;2023-02-28T00:02:33;17;17;
77365;PMS5003;66430;50.182;11.704;2023-02-28T00:04:57;13;13;
77365;PMS5003;66430;50.182;11.704;2023-02-28T00:07:24;18;17;
77365;PMS5003;66430;50.182;11.704;2023-02-28T00:09:48;14;14;
77365;PMS5003;66430;50.182;11.704;2023-02-28T00:12:16;22;16;
77365;PMS5003;66430;50.182;11.704;2023-02-28T00:14:41;22;17;
77365;PMS5003;66430;50.182;11.704;2023-02-28T00:17:05;20;17;
77365;PMS5003;66430;50.182;11.704;2023-02-28T00:19:31;17;17;
77365;PMS5003;66430;50.182;11.704;2023-02-28T00:21:57;18;14;
77365;PMS5003;66430;50.182;11.704;2023-02-28T00:24:22;16;14;
77365;PMS5003;66430;50.182;11.704;2023-02-28T00:26:50;20;16;
77365;PMS5003;66430;50.182;11.704;2023-02-28T00:29:13;14;14;
77365;PMS5003;66430;50.182;11.704;2023-02-28T00:31:39;14;13;
77365;PMS5003;66430;50.182;11.704;2023-02-28T00:34:05;16;14;
77365;PMS5003;66430;50.182;11.704;2023-02-28T00:36:31;16;16;
77365;PMS5003;66430;50.182;11.704;2023-02-28T00:38:57;16;14;
77365;PMS5003;66430;50.182;11.704;2023-02-28T00:41:22;17;13;
77365;PMS5003;66430;50.182;11.704;2023-02-28T00:43:47;22;21;
77365;PMS5003;66430;50.182;11.704;2023-02-28T00:46:13;14;13;
77365;PMS5003;66430;50.182;11.704;2023-02-28T00:48:40;21;13;
77365;PMS5003;66430;50.182;11.704;2023-02-28T00:51:05;17;15;
77365;PMS5003;66430;50.182;11.704;2023-02-28T00:53:29;14;13;
77365;PMS5003;66430;50.182;11.704;2023-02-28T00:55:55;23;21;
77365;PMS5003;66430;50.182;11.704;2023-02-28T00:58:20;15;14;
77365;PMS5003;66430;50.182;11.704;2023-02-28T01:00:45;16;14;
77365;PMS5003;66430;50.182;11.704;2023-02-28T01:03:11;14;14;
77365;PMS5003;66430;50.182;11.704;2023-02-28T01:05:37;16;14;
77365;PMS5003;66430;50.182;11.704;2023-02-28T01:08:04;14;13;
77365;PMS5003;66430;50.182;11.704;2023-02-28T01:10:28;20;14;
77365;PMS5003;66430;50.182;11.704;2023-02-28T01:12:54;17;14;
77365;PMS5003;66430;50.182;11.704;2023-02-28T01:15:22;19;19;
77365;PMS5003;66430;50.182;11.704;2023-02-28T01:17:45;14;14;
77365;PMS5003;66430;50.182;11.704;2023-02-28T01:20:11;20;17;
77365;PMS5003;66430;50.182;11.704;2023-02-28T01:22:36;16;13;
77365;PMS5003;66430;50.182;11.704;2023-02-28T01:25:02;24;21;
77365;PMS5003;66430;50.182;11.704;2023-02-28T01:27:28;16;16;
77365;PMS5003;66430;50.182;11.704;2023-02-28T01:29:53;19;17;
77365;PMS5003;66430;50.182;11.704;2023-02-28T01:32:19;14;14;
77365;PMS5003;66430;50.182;11.704;2023-02-28T01:34:45;21;20;
77365;PMS5003;66430;50.182;11.704;2023-02-28T01:37:09;24;17;
77365;PMS5003;66430;50.182;11.704;2023-02-28T01:39:35;21;15;
77365;PMS5003;66430;50.182;11.704;2023-02-28T01:42:00;19;19;
77365;PMS5003;66430;50.182;11.704;2023-02-28T01:46:52;21;20;
77365;PMS5003;66430;50.182;11.704;2023-02-28T01:49:17;17;15;
77365;PMS5003;66430;50.182;11.704;2023-02-28T01:51:44;15;12;
77365;PMS5003;66430;50.182;11.704;2023-02-28T01:54:10;16;15;
77365;PMS5003;66430;50.182;11.704;2023-02-28T01:56:35;19;17;
77365;PMS5003;66430;50.182;11.704;2023-02-28T01:59:00;17;17;
77365;PMS5003;66430;50.182;11.704;2023-02-28T02:01:26;23;19;
77365;PMS5003;66430;50.182;11.704;2023-02-28T02:03:51;20;19;
77365;PMS5003;66430;50.182;11.704;2023-02-28T02:06:16;20;20;
77365;PMS5003;66430;50.182;11.704;2023-02-28T02:08:42;17;16;
77365;PMS5003;66430;50.182;11.704;2023-02-28T02:11:07;32;27;
77365;PMS5003;66430;50.182;11.704;2023-02-28T02:13:36;14;14;
77365;PMS5003;66430;50.182;11.704;2023-02-28T02:16:02;21;17;
77365;PMS5003;66430;50.182;11.704;2023-02-28T02:18:26;17;16;
77365;PMS5003;66430;50.182;11.704;2023-02-28T02:23:22;14;13;
77365;PMS5003;66430;50.182;11.704;2023-02-28T02:25:40;17;14;
77365;PMS5003;66430;50.182;11.704;2023-02-28T02:30:37;18;16;
77365;PMS5003;66430;50.182;11.704;2023-02-28T02:33:02;14;14;
77365;PMS5003;66430;50.182;11.704;2023-02-28T02:35:23;29;24;
77365;PMS5003;66430;50.182;11.704;2023-02-28T02:37:48;19;17;
77365;PMS5003;66430;50.182;11.704;2023-02-28T02:40:16;16;14;
77365;PMS5003;66430;50.182;11.704;2023-02-28T02:42:40;18;17;
77365;PMS5003;66430;50.182;11.704;2023-02-28T02:45:05;20;20;
77365;PMS5003;66430;50.182;11.704;2023-02-28T02:47:30;14;13;
77365;PMS5003;66430;50.182;11.704;2023-02-28T02:49:56;19;19;
77365;PMS5003;66430;50.182;11.704;2023-02-28T02:52:23;16;16;
77365;PMS5003;66430;50.182;11.704;2023-02-28T02:54:47;20;14;
77365;PMS5003;66430;50.182;11.704;2023-02-28T02:57:14;18;17;
77365;PMS5003;66430;50.182;11.704;2023-02-28T02:59:38;28;22;
77365;PMS5003;66430;50.182;11.704;2023-02-28T03:02:04;21;19;
77365;PMS5003;66430;50.182;11.704;2023-02-28T03:04:30;21;17;
77365;PMS5003;66430;50.182;11.704;2023-02-28T03:06:55;14;14;
77365;PMS5003;66430;50.182;11.704;2023-02-28T03:09:20;24;21;
77365;PMS5003;66430;50.182;11.704;2023-02-28T03:11:46;21;18;
77365;PMS5003;66430;50.182;11.704;2023-02-28T03:14:16;20;17;
77365;PMS5003;66430;50.182;11.704;2023-02-28T03:16:48;18;18;
77365;PMS5003;66430;50.182;11.704;2023-02-28T03:19:03;28;24;
77365;PMS5003;66430;50.182;11.704;2023-02-28T03:21:28;24;19;
77365;PMS5003;66430;50.182;11.704;2023-02-28T03:23:54;24;19;
77365;PMS5003;66430;50.182;11.704;2023-02-28T03:26:19;20;20;
77365;PMS5003;66430;50.182;11.704;2023-02-28T03:28:46;24;20;
77365;PMS5003;66430;50.182;11.704;2023-02-28T03:31:13;21;20;
77365;PMS5003;66430;50.182;11.704;2023-02-28T03:33:37;21;20;
77365;PMS5003;66430;50.182;11.704;2023-02-28T03:36:02;27;26;
77365;PMS5003;66430;50.182;11.704;2023-02-28T03:38:28;24;21;
77365;PMS5003;66430;50.182;11.704;2023-02-28T03:40:56;20;17;
77365;PMS5003;66430;50.182;11.704;2023-02-28T03:43:22;24;19;
77365;PMS5003;66430;50.182;11.704;2023-02-28T03:45:44;24;20;
77365;PMS5003;66430;50.182;11.704;2023-02-28T03:48:12;21;19;
77365;PMS5003;66430;50.182;11.704;2023-02-28T03:50:36;23;19;
77365;PMS5003;66430;50.182;11.704;2023-02-28T03:53:01;27;23;
77365;PMS5003;66430;50.182;11.704;2023-02-28T03:55:26;26;23;
77365;PMS5003;66430;50.182;11.704;2023-02-28T03:57:53;26;22;
77365;PMS5003;66430;50.182;11.704;2023-02-28T04:00:17;18;18;
77365;PMS5003;66430;50.182;11.704;2023-02-28T04:02:44;23;20;
77365;PMS5003;66430;50.182;11.704;2023-02-28T04:05:08;27;23;
77365;PMS5003;66430;50.182;11.704;2023-02-28T04:07:33;43;29;
77365;PMS5003;66430;50.182;11.704;2023-02-28T04:09:58;29;26;
77365;PMS5003;66430;50.182;11.704;2023-02-28T04:12:24;32;27;
77365;PMS5003;66430;50.182;11.704;2023-02-28T04:14:50;25;22;
77365;PMS5003;66430;50.182;11.704;2023-02-28T04:17:15;32;30;
77365;PMS5003;66430;50.182;11.704;2023-02-28T04:19:40;20;19;
77365;PMS5003;66430;50.182;11.704;2023-02-28T04:22:05;25;22;
77365;PMS5003;66430;50.182;11.704;2023-02-28T04:24:30;24;24;
77365;PMS5003;66430;50.182;11.704;2023-02-28T04:26:57;23;23;
77365;PMS5003;66430;50.182;11.704;2023-02-28T04:29:23;22;22;
77365;PMS5003;66430;50.182;11.704;2023-02-28T04:31:48;29;23;
77365;PMS5003;66430;50.182;11.704;2023-02-28T04:34:13;35;34;
77365;PMS5003;66430;50.182;11.704;2023-02-28T04:36:39;23;19;
77365;PMS5003;66430;50.182;11.704;2023-02-28T04:39:06;19;17;
77365;PMS5003;66430;50.182;11.704;2023-02-28T04:41:30;19;16;
77365;PMS5003;66430;50.182;11.704;2023-02-28T04:43:55;24;21;
77365;PMS5003;66430;50.182;11.704;2023-02-28T04:46:21;29;25;
77365;PMS5003;66430;50.182;11.704;2023-02-28T04:48:46;30;23;
77365;PMS5003;66430;50.182;11.704;2023-02-28T04:51:12;29;25;
77365;PMS5003;66430;50.182;11.704;2023-02-28T04:53:38;28;24;
77365;PMS5003;66430;50.182;11.704;2023-02-28T04:56:03;30;24;
77365;PMS5003;66430;50.182;11.704;2023-02-28T04:58:28;27;23;
77365;PMS5003;66430;50.182;11.704;2023-02-28T05:01:01;30;28;
77365;PMS5003;66430;50.182;11.704;2023-02-28T05:03:19;27;24;
77365;PMS5003;66430;50.182;11.704;2023-02-28T05:05:45;30;21;
77365;PMS5003;66430;50.182;11.704;2023-02-28T05:08:11;28;27;
77365;PMS5003;66430;50.182;11.704;2023-02-28T05:10:36;35;32;
77365;PMS5003;66430;50.182;11.704;2023-02-28T05:13:02;28;21;
77365;PMS5003;66430;50.182;11.704;2023-02-28T05:15:27;25;21;
77365;PMS5003;66430;50.182;11.704;2023-02-28T05:17:52;28;27;
77365;PMS5003;66430;50.182;11.704;2023-02-28T05:20:17;32;27;
77365;PMS5003;66430;50.182;11.704;2023-02-28T05:22:43;27;24;
77365;PMS5003;66430;50.182;11.704;2023-02-28T05:25:09;27;26;
77365;PMS5003;66430;50.182;11.704;2023-02-28T05:27:34;34;27;
77365;PMS5003;66430;50.182;11.704;2023-02-28T05:29:59;28;23;
77365;PMS5003;66430;50.182;11.704;2023-02-28T05:32:24;30;23;
77365;PMS5003;66430;50.182;11.704;2023-02-28T05:34:50;31;30;
77365;PMS5003;66430;50.182;11.704;2023-02-28T05:37:15;31;28;
77365;PMS5003;66430;50.182;11.704;2023-02-28T05:39:41;37;28;
77365;PMS5003;66430;50.182;11.704;2023-02-28T05:42:05;25;22;
77365;PMS5003;66430;50.182;11.704;2023-02-28T05:44:31;23;23;
77365;PMS5003;66430;50.182;11.704;2023-02-28T05:46:56;32;23;
77365;PMS5003;66430;50.182;11.704;2023-02-28T05:49:22;34;34;
77365;PMS5003;66430;50.182;11.704;2023-02-28T05:51:48;34;29;
77365;PMS5003;66430;50.182;11.704;2023-02-28T05:54:13;34;25;
77365;PMS5003;66430;50.182;11.704;2023-02-28T05:56:39;37;29;
77365;PMS5003;66430;50.182;11.704;2023-02-28T05:59:04;31;27;
77365;PMS5003;66430;50.182;11.704;2023-02-28T06:01:32;31;26;
77365;PMS5003;66430;50.182;11.704;2023-02-28T06:03:55;31;26;
77365;PMS5003;66430;50.182;11.704;2023-02-28T06:06:20;28;26;
77365;PMS5003;66430;50.182;11.704;2023-02-28T06:08:45;34;27;
77365;PMS5003;66430;50.182;11.704;2023-02-28T06:11:11;31;30;
77365;PMS5003;66430;50.182;11.704;2023-02-28T06:13:36;35;28;
77365;PMS5003;66430;50.182;11.704;2023-02-28T06:16:03;31;21;
77365;PMS5003;66430;50.182;11.704;2023-02-28T06:18:27;34;31;
77365;PMS5003;66430;50.182;11.704;2023-02-28T06:20:53;28;27;
77365;PMS5003;66430;50.182;11.704;2023-02-28T06:23:18;30;25;
77365;PMS5003;66430;50.182;11.704;2023-02-28T06:25:44;31;23;
77365;PMS5003;66430;50.182;11.704;2023-02-28T06:28:09;33;29;
77365;PMS5003;66430;50.182;11.704;2023-02-28T06:30:36;37;31;
77365;PMS5003;66430;50.182;11.704;2023-02-28T06:33:01;34;26;
77365;PMS5003;66430;50.182;11.704;2023-02-28T06:35:27;31;24;
77365;PMS5003;66430;50.182;11.704;2023-02-28T06:37:52;34;30;
77365;PMS5003;66430;50.182;11.704;2023-02-28T06:40:17;37;33;
77365;PMS5003;66430;50.182;11.704;2023-02-28T06:42:42;25;23;
77365;PMS5003;66430;50.182;11.704;2023-02-28T06:45:09;29;26;
77365;PMS5003;66430;50.182;11.704;2023-02-28T06:47:33;29;23;
77365;PMS5003;66430;50.182;11.704;2023-02-28T06:49:59;29;29;
77365;PMS5003;66430;50.182;11.704;2023-02-28T06:52:25;41;32;
77365;PMS5003;66430;50.182;11.704;2023-02-28T06:54:50;43;34;
77365;PMS5003;66430;50.182;11.704;2023-02-28T06:57:15;30;23;
77365;PMS5003;66430;50.182;11.704;2023-02-28T06:59:40;41;36;
77365;PMS5003;66430;50.182;11.704;2023-02-28T07:02:05;29;25;
77365;PMS5003;66430;50.182;11.704;2023-02-28T07:04:31;29;29;
77365;PMS5003;66430;50.182;11.704;2023-02-28T07:06:56;27;24;
77365;PMS5003;66430;50.182;11.704;2023-02-28T07:09:21;27;26;
77365;PMS5003;66430;50.182;11.704;2023-02-28T07:11:47;28;24;
77365;PMS5003;66430;50.182;11.704;2023-02-28T07:14:13;26;24;
77365;PMS5003;66430;50.182;11.704;2023-02-28T07:16:38;34;27;
77365;PMS5003;66430;50.182;11.704;2023-02-28T07:19:04;37;31;
77365;PMS5003;66430;50.182;11.704;2023-02-28T07:21:29;32;24;
77365;PMS5003;66430;50.182;11.704;2023-02-28T07:23:56;34;31;
77365;PMS5003;66430;50.182;11.704;2023-02-28T07:26:21;32;31;
77365;PMS5003;66430;50.182;11.704;2023-02-28T07:28:47;37;31;
77365;PMS5003;66430;50.182;11.704;2023-02-28T07:31:13;32;23;
77365;PMS5003;66430;50.182;11.704;2023-02-28T07:33:37;35;28;
77365;PMS5003;66430;50.182;11.704;2023-02-28T07:36:04;32;30;
77365;PMS5003;66430;50.182;11.704;2023-02-28T07:38:27;27;26;
77365;PMS5003;66430;50.182;11.704;2023-02-28T07:40:53;31;27;
77365;PMS5003;66430;50.182;11.704;2023-02-28T07:43:21;27;24;
77365;PMS5003;66430;50.182;11.704;2023-02-28T07:45:44;34;31;
77365;PMS5003;66430;50.182;11.704;2023-02-28T07:48:09;34;28;
77365;PMS5003;66430;50.182;11.704;2023-02-28T07:50:36;32;30;
77365;PMS5003;66430;50.182;11.704;2023-02-28T07:53:01;39;30;
77365;PMS5003;66430;50.182;11.704;2023-02-28T07:55:26;30;23;
77365;PMS5003;66430;50.182;11.704;2023-02-28T07:57:51;36;30;
77365;PMS5003;66430;50.182;11.704;2023-02-28T08:00:17;26;24;
77365;PMS5003;66430;50.182;11.704;2023-02-28T08:02:42;28;24;
77365;PMS5003;66430;50.182;11.704;2023-02-28T08:05:09;32;31;
77365;PMS5003;66430;50.182;11.704;2023-02-28T08:07:33;31;29;
77365;PMS5003;66430;50.182;11.704;2023-02-28T08:09:58;35;25;
77365;PMS5003;66430;50.182;11.704;2023-02-28T08:12:24;36;28;
77365;PMS5003;66430;50.182;11.704;2023-02-28T08:14:49;32;24;
77365;PMS5003;66430;50.182;11.704;2023-02-28T08:17:15;28;28;
77365;PMS5003;66430;50.182;11.704;2023-02-28T08:19:41;30;23;
77365;PMS5003;66430;50.182;11.704;2023-02-28T08:22:06;31;27;
77365;PMS5003;66430;50.182;11.704;2023-02-28T08:24:32;28;27;
77365;PMS5003;66430;50.182;11.704;2023-02-28T08:26:58;31;25;
77365;PMS5003;66430;50.182;11.704;2023-02-28T08:29:23;32;24;
77365;PMS5003;66430;50.182;11.704;2023-02-28T08:31:48;25;25;
77365;PMS5003;66430;50.182;11.704;2023-02-28T08:34:14;35;27;
77365;PMS5003;66430;50.182;11.704;2023-02-28T08:36:40;35;27;
77365;PMS5003;66430;50.182;11.704;2023-02-28T08:39:06;33;28;
77365;PMS5003;66430;50.182;11.704;2023-02-28T08:41:31;29;22;
77365;PMS5003;66430;50.182;11.704;2023-02-28T08:43:56;33;30;
77365;PMS5003;66430;50.182;11.704;2023-02-28T08:46:22;33;22;
77365;PMS5003;66430;50.182;11.704;2023-02-28T08:48:51;27;25;
77365;PMS5003;66430;50.182;11.704;2023-02-28T08:51:14;33;28;
77365;PMS5003;66430;50.182;11.704;2023-02-28T08:53:39;30;21;
77365;PMS5003;66430;50.182;11.704;2023-02-28T08:56:04;28;24;
77365;PMS5003;66430;50.182;11.704;2023-02-28T08:58:29;25;24;
77365;PMS5003;66430;50.182;11.704;2023-02-28T09:00:55;33;25;
77365;PMS5003;66430;50.182;11.704;2023-02-28T09:03:21;28;24;
77365;PMS5003;66430;50.182;11.704;2023-02-28T09:05:52;26;25;
77365;PMS5003;66430;50.182;11.704;2023-02-28T09:08:11;33;30;
77365;PMS5003;66430;50.182;11.704;2023-02-28T09:10:36;33;24;
77365;PMS5003;66430;50.182;11.704;2023-02-28T09:13:02;33;27;
77365;PMS5003;66430;50.182;11.704;2023-02-28T09:15:28;39;33;
77365;PMS5003;66430;50.182;11.704;2023-02-28T09:17:53;33;27;
77365;PMS5003;66430;50.182;11.704;2023-02-28T09:20:18;29;25;
77365;PMS5003;66430;50.182;11.704;2023-02-28T09:22:43;34;30;
77365;PMS5003;66430;50.182;11.704;2023-02-28T09:25:09;33;28;
77365;PMS5003;66430;50.182;11.704;2023-02-28T09:27:34;32;24;
77365;PMS5003;66430;50.182;11.704;2023-02-28T09:30:00;28;25;
77365;PMS5003;66430;50.182;11.704;2023-02-28T09:32:26;43;32;
77365;PMS5003;66430;50.182;11.704;2023-02-28T09:34:51;30;26;
77365;PMS5003;66430;50.182;11.704;2023-02-28T09:37:16;34;26;
77365;PMS5003;66430;50.182;11.704;2023-02-28T09:39:43;28;26;
77365;PMS5003;66430;50.182;11.704;2023-02-28T09:42:11;34;29;
77365;PMS5003;66430;50.182;11.704;2023-02-28T09:44:33;37;29;
77365;PMS5003;66430;50.182;11.704;2023-02-28T09:46:59;23;23;
77365;PMS5003;66430;50.182;11.704;2023-02-28T09:49:23;30;23;
77365;PMS5003;66430;50.182;11.704;2023-02-28T09:51:52;32;28;
77365;PMS5003;66430;50.182;11.704;2023-02-28T09:54:15;29;25;
77365;PMS5003;66430;50.182;11.704;2023-02-28T09:56:39;28;28;
77365;PMS5003;66430;50.182;11.704;2023-02-28T09:59:05;22;21;
77365;PMS5003;66430;50.182;11.704;2023-02-28T10:01:31;24;21;
77365;PMS5003;66430;50.182;11.704;2023-02-28T10:03:56;22;22;
77365;PMS5003;66430;50.182;11.704;2023-02-28T10:06:21;23;23;
77365;PMS5003;66430;50.182;11.704;2023-02-28T10:08:50;27;25;
77365;PMS5003;66430;50.182;11.704;2023-02-28T10:11:12;23;22;
77365;PMS5003;66430;50.182;11.704;2023-02-28T10:13:37;26;19;
77365;PMS5003;66430;50.182;11.704;2023-02-28T10:16:03;29;23;
77365;PMS5003;66430;50.182;11.704;2023-02-28T10:18:29;25;24;
77365;PMS5003;66430;50.182;11.704;2023-02-28T10:20:54;34;26;
77365;PMS5003;66430;50.182;11.704;2023-02-28T10:23:20;26;25;
77365;PMS5003;66430;50.182;11.704;2023-02-28T10:25:44;33;29;
77365;PMS5003;66430;50.182;11.704;2023-02-28T10:28:11;30;29;
77365;PMS5003;66430;50.182;11.704;2023-02-28T10:30:34;29;21;
77365;PMS5003;66430;50.182;11.704;2023-02-28T10:32:59;34;29;
77365;PMS5003;66430;50.182;11.704;2023-02-28T10:35:25;34;27;
77365;PMS5003;66430;50.182;11.704;2023-02-28T10:37:52;27;21;
77365;PMS5003;66430;50.182;11.704;2023-02-28T10:40:26;25;22;
77365;PMS5003;66430;50.182;11.704;2023-02-28T10:42:42;24;22;
77365;PMS5003;66430;50.182;11.704;2023-02-28T10:45:12;19;19;
77365;PMS5003;66430;50.182;11.704;2023-02-28T10:47:33;28;24;
77365;PMS5003;66430;50.182;11.704;2023-02-28T10:54:50;32;30;
77365;PMS5003;66430;50.182;11.704;2023-02-28T10:57:16;27;27;
77365;PMS5003;66430;50.182;11.704;2023-02-28T10:59:40;24;19;
77365;PMS5003;66430;50.182;11.704;2023-02-28T11:04:32;34;33;
77365;PMS5003;66430;50.182;11.704;2023-02-28T11:06:58;27;23;
77365;PMS5003;66430;50.182;11.704;2023-02-28T11:09:23;23;23;
77365;PMS5003;66430;50.182;11.704;2023-02-28T11:11:48;28;24;
77365;PMS5003;66430;50.182;11.704;2023-02-28T11:14:17;24;24;
77365;PMS5003;66430;50.182;11.704;2023-02-28T11:16:39;24;23;
77365;PMS5003;66430;50.182;11.704;2023-02-28T11:19:06;31;28;
77365;PMS5003;66430;50.182;11.704;2023-02-28T11:21:31;29;24;
77365;PMS5003;66430;50.182;11.704;2023-02-28T11:23:57;25;25;
77365;PMS5003;66430;50.182;11.704;2023-02-28T11:28:46;27;24;
77365;PMS5003;66430;50.182;11.704;2023-02-28T11:31:16;26;22;
77365;PMS5003;66430;50.182;11.704;2023-02-28T11:33:40;33;27;
77365;PMS5003;66430;50.182;11.704;2023-02-28T11:36:10;27;24;
77365;PMS5003;66430;50.182;11.704;2023-02-28T11:38:29;32;28;
77365;PMS5003;66430;50.182;11.704;2023-02-28T11:41:01;30;25;
77365;PMS5003;66430;50.182;11.704;2023-02-28T11:43:22;23;20;
77365;PMS5003;66430;50.182;11.704;2023-02-28T11:45:48;21;20;
77365;PMS5003;66430;50.182;11.704;2023-02-28T11:48:12;20;20;
77365;PMS5003;66430;50.182;11.704;2023-02-28T11:50:39;27;24;
77365;PMS5003;66430;50.182;11.704;2023-02-28T11:53:02;20;20;
77365;PMS5003;66430;50.182;11.704;2023-02-28T11:55:27;22;20;
77365;PMS5003;66430;50.182;11.704;2023-02-28T11:57:59;28;22;
77365;PMS5003;66430;50.182;11.704;2023-02-28T12:00:24;33;29;
77365;PMS5003;66430;50.182;11.704;2023-02-28T12:02:49;23;20;
77365;PMS5003;66430;50.182;11.704;2023-02-28T12:05:12;25;24;
77365;PMS5003;66430;50.182;11.704;2023-02-28T12:07:36;33;29;
77365;PMS5003;66430;50.182;11.704;2023-02-28T12:10:01;33;30;
77365;PMS5003;66430;50.182;11.704;2023-02-28T12:12:29;30;25;
77365;PMS5003;66430;50.182;11.704;2023-02-28T12:14:56;21;20;
77365;PMS5003;66430;50.182;11.704;2023-02-28T12:17:18;30;24;
77365;PMS5003;66430;50.182;11.704;2023-02-28T12:19:42;26;26;
77365;PMS5003;66430;50.182;11.704;2023-02-28T12:22:10;31;25;
77365;PMS5003;66430;50.182;11.704;2023-02-28T12:24:36;33;26;
77365;PMS5003;66430;50.182;11.704;2023-02-28T12:26:57;18;16;
77365;PMS5003;66430;50.182;11.704;2023-02-28T12:29:23;27;22;
77365;PMS5003;66430;50.182;11.704;2023-02-28T12:31:48;28;27;
77365;PMS5003;66430;50.182;11.704;2023-02-28T12:34:13;31;25;
77365;PMS5003;66430;50.182;11.704;2023-02-28T12:36:38;25;25;
77365;PMS5003;66430;50.182;11.704;2023-02-28T12:39:04;30;23;
77365;PMS5003;66430;50.182;11.704;2023-02-28T12:41:31;25;22;
77365;PMS5003;66430;50.182;11.704;2023-02-28T12:43:57;26;22;
77365;PMS5003;66430;50.182;11.704;2023-02-28T12:46:21;31;29;
77365;PMS5003;66430;50.182;11.704;2023-02-28T12:48:46;43;34;
77365;PMS5003;66430;50.182;11.704;2023-02-28T12:51:12;31;26;
77365;PMS5003;66430;50.182;11.704;2023-02-28T12:53:40;30;29;
77365;PMS5003;66430;50.182;11.704;2023-02-28T12:56:07;22;20;
77365;PMS5003;66430;50.182;11.704;2023-02-28T12:58:29;35;32;
77365;PMS5003;66430;50.182;11.704;2023-02-28T13:01:00;30;26;
77365;PMS5003;66430;50.182;11.704;2023-02-28T13:03:23;28;25;
77365;PMS5003;66430;50.182;11.704;2023-02-28T13:05:49;40;39;
77365;PMS5003;66430;50.182;11.704;2023-02-28T13:10:39;27;24;
77365;PMS5003;66430;50.182;11.704;2023-02-28T13:13:01;34;30;
77365;PMS5003;66430;50.182;11.704;2023-02-28T13:15:26;34;30;
77365;PMS5003;66430;50.182;11.704;2023-02-28T13:17:51;29;25;
77365;PMS5003;66430;50.182;11.704;2023-02-28T13:20:18;27;27;
77365;PMS5003;66430;50.182;11.704;2023-02-28T13:22:43;31;26;
77365;PMS5003;66430;50.182;11.704;2023-02-28T13:27:36;27;26;
77365;PMS5003;66430;50.182;11.704;2023-02-28T13:29:59;23;23;
77365;PMS5003;66430;50.182;11.704;2023-02-28T13:32:28;27;26;
77365;PMS5003;66430;50.182;11.704;2023-02-28T13:39:46;26;23;
77365;PMS5003;66430;50.182;11.704;2023-02-28T13:44:30;31;27;
77365;PMS5003;66430;50.182;11.704;2023-02-28T13:49:24;27;23;
77365;PMS5003;66430;50.182;11.704;2023-02-28T13:51:46;57;57;
77365;PMS5003;66430;50.182;11.704;2023-02-28T13:54:17;31;26;
77365;PMS5003;66430;50.182;11.704;2023-02-28T13:56:41;22;22;
77365;PMS5003;66430;50.182;11.704;2023-02-28T13:59:06;28;25;
77365;PMS5003;66430;50.182;11.704;2023-02-28T14:01:32;26;23;
77365;PMS5003;66430;50.182;11.704;2023-02-28T14:04:00;27;27;
77365;PMS5003;66430;50.182;11.704;2023-02-28T14:06:22;44;37;
77365;PMS5003;66430;50.182;11.704;2023-02-28T14:08:47;37;35;
77365;PMS5003;66430;50.182;11.704;2023-02-28T14:13:38;35;31;
77365;PMS5003;66430;50.182;11.704;2023-02-28T14:16:01;35;34;
77365;PMS5003;66430;50.182;11.704;2023-02-28T14:18:28;31;29;
77365;PMS5003;66430;50.182;11.704;2023-02-28T14:20:57;29;25;
77365;PMS5003;66430;50.182;11.704;2023-02-28T14:23:20;30;30;
77365;PMS5003;66430;50.182;11.704;2023-02-28T14:25:45;41;37;
77365;PMS5003;66430;50.182;11.704;2023-02-28T14:28:12;39;29;
77365;PMS5003;66430;50.182;11.704;2023-02-28T14:33:00;33;29;
77365;PMS5003;66430;50.182;11.704;2023-02-28T14:37:51;23;23;
77365;PMS5003;66430;50.182;11.704;2023-02-28T14:40:17;25;24;
77365;PMS5003;66430;50.182;11.704;2023-02-28T14:42:45;27;24;
77365;PMS5003;66430;50.182;11.704;2023-02-28T14:47:33;29;29;
77365;PMS5003;66430;50.182;11.704;2023-02-28T14:49:59;35;29;
77365;PMS5003;66430;50.182;11.704;2023-02-28T14:52:24;34;29;
77365;PMS5003;66430;50.182;11.704;2023-02-28T14:54:51;28;25;
77365;PMS5003;66430;50.182;11.704;2023-02-28T14:57:21;33;25;
77365;PMS5003;66430;50.182;11.704;2023-02-28T14:59:40;30;25;
77365;PMS5003;66430;50.182;11.704;2023-02-28T15:02:15;28;26;
77365;PMS5003;66430;50.182;11.704;2023-02-28T15:04:31;35;31;
77365;PMS5003;66430;50.182;11.704;2023-02-28T15:09:22;27;24;
77365;PMS5003;66430;50.182;11.704;2023-02-28T15:11:48;25;24;
77365;PMS5003;66430;50.182;11.704;2023-02-28T15:14:14;23;20;
77365;PMS5003;66430;50.182;11.704;2023-02-28T15:16:38;29;28;
77365;PMS5003;66430;50.182;11.704;2023-02-28T15:19:03;33;31;
77365;PMS5003;66430;50.182;11.704;2023-02-28T15:21:29;35;30;
77365;PMS5003;66430;50.182;11.704;2023-02-28T15:23:56;35;31;
77365;PMS5003;66430;50.182;11.704;2023-02-28T15:26:20;36;30;
77365;PMS5003;66430;50.182;11.704;2023-02-28T15:28:46;33;27;
77365;PMS5003;66430;50.182;11.704;2023-02-28T15:31:19;33;30;
77365;PMS5003;66430;50.182;11.704;2023-02-28T15:33:36;30;28;
77365;PMS5003;66430;50.182;11.704;2023-02-28T15:36:09;35;34;
77365;PMS5003;66430;50.182;11.704;2023-02-28T15:38:27;33;29;
77365;PMS5003;66430;50.182;11.704;2023-02-28T15:40:52;32;29;
77365;PMS5003;66430;50.182;11.704;2023-02-28T15:43:17;37;29;
77365;PMS5003;66430;50.182;11.704;2023-02-28T15:45:44;33;31;
77365;PMS5003;66430;50.182;11.704;2023-02-28T15:48:14;38;32;
77365;PMS5003;66430;50.182;11.704;2023-02-28T15:50:33;35;34;
77365;PMS5003;66430;50.182;11.704;2023-02-28T15:52:58;34;31;
77365;PMS5003;66430;50.182;11.704;2023-02-28T15:55:26;38;28;
77365;PMS5003;66430;50.182;11.704;2023-02-28T15:57:49;32;29;
77365;PMS5003;66430;50.182;11.704;2023-02-28T16:00:14;35;34;
77365;PMS5003;66430;50.182;11.704;2023-02-28T16:02:39;36;32;
77365;PMS5003;66430;50.182;11.704;2023-02-28T16:07:29;37;29;
77365;PMS5003;66430;50.182;11.704;2023-02-28T16:09:55;42;29;
77365;PMS5003;66430;50.182;11.704;2023-02-28T16:12:20;44;37;
77365;PMS5003;66430;50.182;11.704;2023-02-28T16:14:46;43;36;
77365;PMS5003;66430;50.182;11.704;2023-02-28T16:17:15;39;34;
77365;PMS5003;66430;50.182;11.704;2023-02-28T16:19:36;42;38;
77365;PMS5003;66430;50.182;11.704;2023-02-28T16:22:07;45;34;
77365;PMS5003;66430;50.182;11.704;2023-02-28T16:24:27;38;32;
77365;PMS5003;66430;50.182;11.704;2023-02-28T16:26:53;44;35;
77365;PMS5003;66430;50.182;11.704;2023-02-28T16:29:19;44;35;
77365;PMS5003;66430;50.182;11.704;2023-02-28T16:31:44;33;26;
77365;PMS5003;66430;50.182;11.704;2023-02-28T16:34:09;32;28;